Terminal Aerodrome Forecast
Issued by NWS

Home | Current Version | Previous Version | Text Only | Print | Product List | Glossary On
Versions: 1 2 3 4 5 6 7 8 9 10 11 12 13 14 15 16 17
000
FTUS46 KMTR 311135
TAFOAK
TAF
KOAK 311135Z 3112/0118 28007KT P6SM OVC010
     FM311700 29009KT P6SM FEW010 FEW150
     FM312100 30016KT P6SM FEW015
     FM010400 30012KT P6SM FEW010
     FM010700 27010KT P6SM OVC010
     FM011100 27010KT P6SM OVC008=

USA.gov is the U.S. government's official web portal to all federal, state and local government web resources and services.